Weather at Haifa International Airport

Public forecast

Using degrees Celsius for public forecast. Weather courtesy of forecast.io.

Current aviation weather report (METAR) for Haifa International Airport

Retrieved 2021/10/28 10:50 UTC (56 minutes ago):

LLHA 281050Z 35013KT CAVOK 27/15 Q1014 RMK FEW130

Aviation forecast (TAF) for Haifa International Airport

Retrieved 2021/10/28 06:00 UTC (6 hours ago):

TAF LLHA 280504Z 2806/2906 14005KT CAVOK BECMG 2808/2811 34015KT BECMG 2817/2819 02007KT BECMG 2821/2823 VRB04KT TEMPO 2900/2906 14005KT TX29/2811Z TN19/2904Z